createdAt,value
2019-04-30T00:00:34.784Z,96709.50
2019-04-30T00:01:58.745Z,96704.79
2019-04-30T00:03:11.594Z,96708.44
2019-04-30T00:04:37.549Z,96709.83
2019-04-30T00:05:39.483Z,96702.89
2019-04-30T00:06:46.713Z,96704.19
2019-04-30T00:07:55.023Z,96702.33
2019-04-30T00:09:02.840Z,96703.13
2019-04-30T00:10:12.166Z,96704.79
2019-04-30T00:11:19.692Z,96705.72
2019-04-30T00:12:30.792Z,96709.50
2019-04-30T00:13:35.997Z,96702.20
2019-04-30T00:14:44.891Z,96705.72
2019-04-30T00:15:52.878Z,96705.72
2019-04-30T00:17:01.175Z,96701.37
2019-04-30T00:18:08.494Z,96700.45
2019-04-30T00:19:19.479Z,96705.52
2019-04-30T00:20:25.565Z,96695.91
2019-04-30T00:21:32.854Z,96705.70
2019-04-30T00:22:47.110Z,96700.89
2019-04-30T00:23:49.003Z,96696.08
2019-04-30T00:24:56.286Z,96699.97
2019-04-30T00:26:06.019Z,96700.89
2019-04-30T00:27:12.493Z,96701.26
2019-04-30T00:28:20.094Z,96699.97
2019-04-30T00:29:30.886Z,96701.26
2019-04-30T00:30:39.282Z,96699.59
2019-04-30T00:31:47.102Z,96704.21
2019-04-30T00:32:55.685Z,96701.63
2019-04-30T00:34:04.921Z,96704.21
2019-04-30T00:35:18.106Z,96702.09
2019-04-30T00:36:27.541Z,96696.45
2019-04-30T00:37:32.184Z,96698.58
2019-04-30T00:38:40.129Z,96698.67
2019-04-30T00:39:51.131Z,96696.91
2019-04-30T00:40:57.844Z,96701.52
2019-04-30T00:42:05.976Z,96694.23
2019-04-30T00:43:13.247Z,96689.52
2019-04-30T00:44:24.879Z,96696.45
2019-04-30T00:45:29.438Z,96695.52
2019-04-30T00:46:36.673Z,96691.73
2019-04-30T00:47:47.865Z,96695.98
2019-04-30T00:48:55.686Z,96694.69
2019-04-30T00:50:04.989Z,96689.52
2019-04-30T00:51:17.698Z,96696.35
2019-04-30T00:52:22.303Z,96695.06
2019-04-30T00:53:29.963Z,96699.41
2019-04-30T00:54:37.160Z,96699.64
2019-04-30T00:55:48.245Z,96694.73
2019-04-30T00:56:57.526Z,96691.58
2019-04-30T00:58:02.261Z,96697.48
2019-04-30T00:59:10.714Z,96702.47
2019-04-30T01:00:25.059Z,96689.90
2019-04-30T01:01:59.100Z,96697.89
2019-04-30T01:03:11.817Z,96694.75
2019-04-30T01:04:28.231Z,96702.38
2019-04-30T01:05:39.706Z,96695.41
2019-04-30T01:06:46.127Z,96690.59
2019-04-30T01:07:55.004Z,96693.55
2019-04-30T01:09:05.465Z,96692.06
2019-04-30T01:10:15.205Z,96691.43
2019-04-30T01:11:22.533Z,96691.33
2019-04-30T01:12:35.861Z,96695.11
2019-04-30T01:13:45.656Z,96691.47
2019-04-30T01:14:49.778Z,96690.44
2019-04-30T01:15:58.796Z,96686.19
2019-04-30T01:17:08.802Z,96678.69
2019-04-30T01:18:15.079Z,96681.54
2019-04-30T01:19:30.007Z,96682.47
2019-04-30T01:20:33.010Z,96678.59
2019-04-30T01:21:47.024Z,96679.52
2019-04-30T01:22:49.368Z,96676.66
2019-04-30T01:23:59.032Z,96677.23
2019-04-30T01:25:12.102Z,96675.23
2019-04-30T01:26:15.995Z,96671.92
2019-04-30T01:27:23.208Z,96674.97
2019-04-30T01:28:30.810Z,96678.02
2019-04-30T01:29:44.058Z,96674.20
2019-04-30T01:30:47.258Z,96674.60
2019-04-30T01:31:54.674Z,96674.67
2019-04-30T01:33:01.900Z,96673.31
2019-04-30T01:34:10.357Z,96666.38
2019-04-30T01:35:19.071Z,96666.38
2019-04-30T01:36:26.518Z,96664.25
2019-04-30T01:37:34.915Z,96658.24
2019-04-30T01:38:44.847Z,96661.73
2019-04-30T01:39:51.070Z,96665.25
2019-04-30T01:40:59.600Z,96664.78
2019-04-30T01:42:07.920Z,96657.48
2019-04-30T01:43:15.843Z,96662.19
2019-04-30T01:44:23.106Z,96657.95
2019-04-30T01:45:31.609Z,96657.48
2019-04-30T01:46:39.133Z,96661.73
2019-04-30T01:47:46.488Z,96658.31
2019-04-30T01:48:53.726Z,96657.38
2019-04-30T01:50:04.695Z,96650.55
2019-04-30T01:51:13.429Z,96653.60
2019-04-30T01:52:19.376Z,96651.48
2019-04-30T01:53:28.493Z,96661.00
2019-04-30T01:54:35.827Z,96655.92
2019-04-30T01:55:55.733Z,96657.22
2019-04-30T01:57:20.599Z,96659.80
2019-04-30T01:58:41.915Z,96655.19
2019-04-30T02:00:06.826Z,96654.23
2019-04-30T02:01:18.989Z,96655.81
2019-04-30T02:02:28.641Z,96650.70
2019-04-30T02:03:36.288Z,96661.16
2019-04-30T02:04:43.515Z,96659.39
2019-04-30T02:05:50.770Z,96664.57
2019-04-30T02:06:59.217Z,96655.78
2019-04-30T02:08:08.380Z,96656.11
2019-04-30T02:09:15.465Z,96659.90
2019-04-30T02:10:22.675Z,96662.02
2019-04-30T02:11:29.898Z,96658.50
2019-04-30T02:12:39.186Z,96660.06
2019-04-30T02:13:46.151Z,96648.69
2019-04-30T02:14:53.410Z,96659.77
2019-04-30T02:16:00.632Z,96656.13
2019-04-30T02:17:09.408Z,96656.39
2019-04-30T02:18:16.704Z,96656.66
2019-04-30T02:19:23.929Z,96658.67
2019-04-30T02:20:31.141Z,96656.85
2019-04-30T02:21:38.633Z,96659.34
2019-04-30T02:22:45.867Z,96657.45
2019-04-30T02:23:53.118Z,96659.47
2019-04-30T02:25:00.404Z,96660.20
2019-04-30T02:26:08.630Z,96654.45
2019-04-30T02:27:15.979Z,96655.55
2019-04-30T02:28:23.222Z,96651.77
2019-04-30T02:29:30.451Z,96656.84
2019-04-30T02:30:40.357Z,96652.96
2019-04-30T02:31:46.663Z,96649.44
2019-04-30T02:32:53.888Z,96652.50
2019-04-30T02:34:10.195Z,96652.03
2019-04-30T02:35:35.191Z,96654.52
2019-04-30T02:36:59.141Z,96648.61
2019-04-30T02:38:14.093Z,96648.72
2019-04-30T02:39:21.336Z,96639.75
2019-04-30T02:40:30.780Z,96641.88
2019-04-30T02:41:41.178Z,96641.78
2019-04-30T02:42:50.159Z,96642.61
2019-04-30T02:43:59.857Z,96647.32
2019-04-30T02:45:10.262Z,96644.27
2019-04-30T02:46:19.266Z,96644.16
2019-04-30T02:47:30.212Z,96641.34
2019-04-30T02:48:40.832Z,96646.78
2019-04-30T02:49:50.038Z,96646.78
2019-04-30T02:51:03.041Z,96644.55
2019-04-30T02:52:13.431Z,96647.51
2019-04-30T02:54:31.843Z,96646.68
2019-04-30T02:55:45.696Z,96648.08
2019-04-30T02:57:02.259Z,96646.16
2019-04-30T02:58:09.686Z,96652.17
2019-04-30T02:59:16.958Z,96647.83
2019-04-30T03:00:24.187Z,96644.30
2019-04-30T03:01:31.458Z,96641.98
2019-04-30T03:02:39.351Z,96647.05
2019-04-30T03:03:50.076Z,96643.07
2019-04-30T03:05:00.016Z,96641.31
2019-04-30T03:06:06.212Z,96639.92
2019-04-30T03:07:13.419Z,96642.61
2019-04-30T03:08:20.633Z,96641.31
2019-04-30T03:09:29.688Z,96644.73
2019-04-30T03:10:36.809Z,96644.73
2019-04-30T03:11:44.045Z,96640.95
2019-04-30T03:12:51.260Z,96645.56
2019-04-30T03:13:59.232Z,96644.62
2019-04-30T03:15:10.013Z,96649.67
2019-04-30T03:16:21.395Z,96647.81
2019-04-30T03:17:39.447Z,96648.64
2019-04-30T03:19:10.681Z,96644.30
2019-04-30T03:20:46.026Z,96647.34
2019-04-30T03:22:00.000Z,96640.48
2019-04-30T03:23:06.372Z,96640.78
2019-04-30T03:24:13.652Z,96645.03
2019-04-30T03:25:20.868Z,96645.76
2019-04-30T03:26:29.780Z,96643.44
2019-04-30T03:27:42.198Z,96646.75
2019-04-30T03:28:46.023Z,96647.91
2019-04-30T03:29:53.223Z,96643.09
2019-04-30T03:31:04.462Z,96636.98
2019-04-30T03:32:13.512Z,96646.78
2019-04-30T03:33:22.876Z,96642.44
2019-04-30T03:34:32.471Z,96646.58
2019-04-30T03:35:46.537Z,96634.00
2019-04-30T03:36:46.293Z,96640.83
2019-04-30T03:37:53.552Z,96634.83
2019-04-30T03:39:00.822Z,96638.34
2019-04-30T03:40:13.140Z,96637.41
2019-04-30T03:41:20.029Z,96638.61
2019-04-30T03:42:29.451Z,96635.66
2019-04-30T03:43:36.427Z,96638.70
2019-04-30T03:44:43.711Z,96645.55
2019-04-30T03:45:51.541Z,96638.24
2019-04-30T03:46:59.264Z,96642.13
2019-04-30T03:48:09.937Z,96641.66
2019-04-30T03:49:16.041Z,96638.47
2019-04-30T03:50:23.427Z,96639.30
2019-04-30T03:51:30.667Z,96644.02
2019-04-30T03:52:39.418Z,96645.20
2019-04-30T03:53:49.578Z,96641.79
2019-04-30T03:54:55.860Z,96638.97
2019-04-30T03:56:03.095Z,96640.83
2019-04-30T03:57:10.843Z,96640.10
2019-04-30T03:58:21.194Z,96642.33
2019-04-30T03:59:29.838Z,96640.20
2019-04-30T04:00:53.778Z,96639.58
2019-04-30T04:02:12.267Z,96640.51
2019-04-30T04:03:16.691Z,96639.66
2019-04-30T04:04:54.972Z,96639.75
2019-04-30T04:06:30.225Z,96638.92
2019-04-30T04:07:45.358Z,96646.89
2019-04-30T04:09:10.313Z,96647.69
2019-04-30T04:10:33.291Z,96648.39
2019-04-30T04:11:41.882Z,96653.56
2019-04-30T04:12:49.793Z,96653.36
2019-04-30T04:13:59.571Z,96647.63
2019-04-30T04:15:10.433Z,96650.01
2019-04-30T04:16:19.383Z,96654.72
2019-04-30T04:17:27.451Z,96655.09
2019-04-30T04:18:34.675Z,96648.15
2019-04-30T04:19:41.896Z,96645.45
2019-04-30T04:20:55.093Z,96650.50
2019-04-30T04:22:00.154Z,96650.50
2019-04-30T04:23:09.687Z,96645.33
2019-04-30T04:24:16.981Z,96650.03
2019-04-30T04:25:24.207Z,96648.84
2019-04-30T04:26:31.702Z,96639.45
2019-04-30T04:27:39.339Z,96647.22
2019-04-30T04:28:46.635Z,96646.39
2019-04-30T04:29:53.873Z,96646.85
2019-04-30T04:31:01.103Z,96648.52
2019-04-30T04:32:10.644Z,96652.73
2019-04-30T04:33:19.749Z,96656.61
2019-04-30T04:34:26.262Z,96657.91
2019-04-30T04:35:33.479Z,96654.98
2019-04-30T04:36:43.309Z,96653.33
2019-04-30T04:37:49.928Z,96663.22
2019-04-30T04:38:59.926Z,96664.52
2019-04-30T04:40:09.133Z,96670.52
2019-04-30T04:41:15.812Z,96668.76
2019-04-30T04:42:23.066Z,96667.47
2019-04-30T04:43:30.288Z,96672.14
2019-04-30T04:44:39.910Z,96672.52
2019-04-30T04:45:46.427Z,96675.10
2019-04-30T04:46:54.296Z,96676.86
2019-04-30T04:48:01.495Z,96672.14
2019-04-30T04:49:09.118Z,96670.39
2019-04-30T04:50:16.865Z,96676.39
2019-04-30T04:51:36.834Z,96673.34
2019-04-30T04:52:33.052Z,96669.36
2019-04-30T04:53:40.467Z,96671.58
2019-04-30T04:54:50.264Z,96674.63
2019-04-30T04:55:56.684Z,96668.76
2019-04-30T04:57:14.902Z,96675.70
2019-04-30T04:58:13.123Z,96680.88
2019-04-30T04:59:20.431Z,96674.03
2019-04-30T05:00:29.350Z,96679.68
2019-04-30T05:01:38.650Z,96679.22
2019-04-30T05:03:09.331Z,96679.22
2019-04-30T05:04:19.733Z,96680.88
2019-04-30T05:05:26.342Z,96684.23
2019-04-30T05:06:33.775Z,96680.45
2019-04-30T05:07:41.182Z,96681.38
2019-04-30T05:08:49.304Z,96682.67
2019-04-30T05:09:56.614Z,96689.14
2019-04-30T05:11:03.849Z,96688.67
2019-04-30T05:12:11.060Z,96687.75
2019-04-30T05:13:19.216Z,96684.33
2019-04-30T05:14:28.681Z,96685.16
2019-04-30T05:15:35.557Z,96688.11
2019-04-30T05:16:42.800Z,96686.92
2019-04-30T05:17:50.039Z,96686.66
2019-04-30T05:18:58.602Z,96684.99
2019-04-30T05:20:06.696Z,96688.05
2019-04-30T05:21:13.923Z,96689.80
2019-04-30T05:22:21.191Z,96695.95
2019-04-30T05:23:29.885Z,96692.86
2019-04-30T05:24:38.456Z,96687.68
2019-04-30T05:25:46.207Z,96696.41
2019-04-30T05:26:53.441Z,96691.70
2019-04-30T05:28:00.683Z,96694.16
2019-04-30T05:29:09.561Z,96704.51
2019-04-30T05:30:19.365Z,96698.86
2019-04-30T05:31:28.594Z,96699.70
2019-04-30T05:32:35.887Z,96706.16
2019-04-30T05:33:43.665Z,96704.88
2019-04-30T05:34:50.941Z,96705.70
2019-04-30T05:35:59.428Z,96713.83
2019-04-30T05:37:08.672Z,96707.00
2019-04-30T05:38:18.846Z,96707.83
2019-04-30T05:39:25.785Z,96712.17
2019-04-30T05:40:33.012Z,96712.54
2019-04-30T05:41:41.723Z,96721.60
2019-04-30T05:42:49.654Z,96717.35
2019-04-30T05:43:58.994Z,96726.41
2019-04-30T05:45:09.131Z,96720.53
2019-04-30T05:46:16.088Z,96717.22
2019-04-30T05:47:23.327Z,96727.27
2019-04-30T05:48:30.867Z,96723.85
2019-04-30T05:49:38.877Z,96724.31
2019-04-30T05:50:46.151Z,96719.60
2019-04-30T05:51:55.810Z,96724.31
2019-04-30T05:53:02.383Z,96721.73
2019-04-30T05:54:09.610Z,96725.14
2019-04-30T05:55:16.881Z,96723.48
2019-04-30T05:56:24.135Z,96721.73
2019-04-30T05:57:31.425Z,96725.14
2019-04-30T05:58:39.946Z,96722.48
2019-04-30T05:59:48.685Z,96724.61
2019-04-30T06:00:56.457Z,96720.27
2019-04-30T06:02:05.416Z,96721.00
2019-04-30T06:03:24.695Z,96718.14
2019-04-30T06:04:21.874Z,96724.98
2019-04-30T06:05:29.115Z,96724.16
2019-04-30T06:06:36.362Z,96721.09
2019-04-30T06:07:43.643Z,96720.53
2019-04-30T06:09:06.278Z,96721.83
2019-04-30T06:10:15.755Z,96718.65
2019-04-30T06:11:40.969Z,96722.53
2019-04-30T06:12:56.069Z,96717.45
2019-04-30T06:14:20.834Z,96722.09
2019-04-30T06:15:32.457Z,96721.27
2019-04-30T06:16:39.684Z,96724.61
2019-04-30T06:18:00.042Z,96723.31
2019-04-30T06:18:58.857Z,96726.73
2019-04-30T06:20:16.194Z,96722.84
2019-04-30T06:21:15.483Z,96730.52
2019-04-30T06:22:23.385Z,96728.30
2019-04-30T06:23:30.656Z,96729.95
2019-04-30T06:24:39.554Z,96726.91
2019-04-30T06:25:57.564Z,96735.80
2019-04-30T06:27:00.480Z,96730.98
2019-04-30T06:28:09.589Z,96729.70
2019-04-30T06:29:16.656Z,96732.88
2019-04-30T06:30:26.120Z,96734.45
2019-04-30T06:31:37.337Z,96729.53
2019-04-30T06:32:43.319Z,96733.69
2019-04-30T06:33:50.845Z,96727.48
2019-04-30T06:34:59.297Z,96730.77
2019-04-30T06:36:08.569Z,96728.55
2019-04-30T06:37:15.961Z,96731.50
2019-04-30T06:38:23.271Z,96727.05
2019-04-30T06:39:30.546Z,96726.02
2019-04-30T06:40:39.345Z,96724.16
2019-04-30T06:41:47.108Z,96726.19
2019-04-30T06:42:54.727Z,96726.52
2019-04-30T06:44:02.058Z,96721.34
2019-04-30T06:45:10.725Z,96728.55
2019-04-30T06:46:18.730Z,96724.20
2019-04-30T06:47:33.132Z,96722.80
2019-04-30T06:48:39.221Z,96720.67
2019-04-30T06:49:48.821Z,96721.14
2019-04-30T06:50:56.336Z,96727.98
2019-04-30T06:52:03.583Z,96718.92
2019-04-30T06:53:10.801Z,96723.17
2019-04-30T06:54:19.153Z,96724.36
2019-04-30T06:55:30.653Z,96725.55
2019-04-30T06:56:36.187Z,96726.95
2019-04-30T06:57:43.403Z,96714.10
2019-04-30T06:58:52.570Z,96727.05
2019-04-30T07:00:05.673Z,96719.38
2019-04-30T07:01:09.536Z,96721.61
2019-04-30T07:02:16.817Z,96722.54
2019-04-30T07:03:24.026Z,96719.25
2019-04-30T07:04:31.243Z,96720.55
2019-04-30T07:05:39.153Z,96721.47
2019-04-30T07:06:46.514Z,96722.50
2019-04-30T07:08:12.220Z,96727.05
2019-04-30T07:09:31.665Z,96721.14
2019-04-30T07:10:41.434Z,96729.53
2019-04-30T07:12:00.413Z,96729.47
2019-04-30T07:13:20.163Z,96727.11
2019-04-30T07:14:29.166Z,96727.67
2019-04-30T07:15:36.521Z,96726.08
2019-04-30T07:16:43.762Z,96729.49
2019-04-30T07:17:51.007Z,96730.72
2019-04-30T07:18:58.609Z,96734.04
2019-04-30T07:20:06.641Z,96729.23
2019-04-30T07:21:14.272Z,96729.93
2019-04-30T07:22:36.465Z,96735.01
2019-04-30T07:23:30.433Z,96731.03
2019-04-30T07:24:39.388Z,96730.47
2019-04-30T07:25:51.371Z,96729.44
2019-04-30T07:26:59.715Z,96723.43
2019-04-30T07:28:05.758Z,96725.92
2019-04-30T07:29:12.999Z,96728.41
2019-04-30T07:30:20.210Z,96735.58
2019-04-30T07:31:29.396Z,96725.13
2019-04-30T07:32:36.345Z,96731.03
2019-04-30T07:33:43.585Z,96735.28
2019-04-30T07:34:50.825Z,96732.23
2019-04-30T07:36:01.544Z,96737.77
2019-04-30T07:37:14.472Z,96737.77
2019-04-30T07:38:15.894Z,96739.44
2019-04-30T07:39:23.400Z,96745.08
2019-04-30T07:40:32.058Z,96741.30
2019-04-30T07:41:40.227Z,96734.92
2019-04-30T07:42:49.311Z,96741.03
2019-04-30T07:43:56.784Z,96739.83
2019-04-30T07:45:04.125Z,96745.60
2019-04-30T07:46:11.381Z,96740.06
2019-04-30T07:47:19.807Z,96743.11
2019-04-30T07:48:27.065Z,96741.36
2019-04-30T07:49:46.952Z,96741.72
2019-04-30T07:50:43.553Z,96746.44
2019-04-30T07:51:52.149Z,96739.00
2019-04-30T07:53:05.608Z,96748.80
2019-04-30T07:54:09.281Z,96748.70
2019-04-30T07:55:19.617Z,96747.77
2019-04-30T07:56:29.269Z,96745.34
2019-04-30T07:57:35.600Z,96739.70
2019-04-30T07:58:43.770Z,96746.91
2019-04-30T07:59:51.460Z,96751.48
2019-04-30T08:01:00.307Z,96749.06
2019-04-30T08:02:14.379Z,96751.82
2019-04-30T08:03:30.135Z,96748.44
2019-04-30T08:05:01.029Z,96739.17
2019-04-30T08:06:10.193Z,96743.31
2019-04-30T08:07:19.616Z,96743.16
2019-04-30T08:08:26.696Z,96743.42
2019-04-30T08:09:39.703Z,96747.56
2019-04-30T08:10:42.792Z,96745.70
2019-04-30T08:11:50.066Z,96749.95
2019-04-30T08:13:08.080Z,96747.23
2019-04-30T08:14:06.907Z,96756.80
2019-04-30T08:15:14.624Z,96754.20
2019-04-30T08:16:21.910Z,96755.14
2019-04-30T08:17:29.119Z,96758.66
2019-04-30T08:18:36.316Z,96757.83
2019-04-30T08:19:43.531Z,96753.58
2019-04-30T08:20:50.766Z,96751.92
2019-04-30T08:21:58.637Z,96759.23
2019-04-30T08:23:14.057Z,96760.52
2019-04-30T08:24:14.815Z,96760.52
2019-04-30T08:25:22.157Z,96760.05
2019-04-30T08:26:30.333Z,96759.95
2019-04-30T08:27:39.287Z,96756.90
2019-04-30T08:28:48.863Z,96760.32
2019-04-30T08:29:56.167Z,96762.78
2019-04-30T08:31:03.500Z,96763.61
2019-04-30T08:32:10.746Z,96763.97
2019-04-30T08:33:19.386Z,96760.55
2019-04-30T08:34:29.111Z,96761.28
2019-04-30T08:35:35.718Z,96760.81
2019-04-30T08:36:42.960Z,96764.97
2019-04-30T08:37:50.212Z,96763.11
2019-04-30T08:38:59.249Z,96764.66
2019-04-30T08:40:08.516Z,96766.55
2019-04-30T08:41:15.735Z,96765.52
2019-04-30T08:42:31.725Z,96764.86
2019-04-30T08:43:31.928Z,96769.73
2019-04-30T08:44:39.667Z,96764.41
2019-04-30T08:45:48.824Z,96766.70
2019-04-30T08:46:56.337Z,96760.84
2019-04-30T08:48:03.567Z,96760.50
2019-04-30T08:49:11.415Z,96764.45
2019-04-30T08:50:20.068Z,96767.19
2019-04-30T08:51:30.524Z,96760.84
2019-04-30T08:52:36.828Z,96764.88
2019-04-30T08:53:44.055Z,96765.61
2019-04-30T08:54:51.285Z,96763.53
2019-04-30T08:55:59.141Z,96764.62
2019-04-30T08:57:08.495Z,96764.88
2019-04-30T08:58:15.486Z,96761.24
2019-04-30T08:59:22.706Z,96755.59
2019-04-30T09:00:30.023Z,96756.07
2019-04-30T09:01:38.703Z,96760.11
2019-04-30T09:02:46.070Z,96758.03
2019-04-30T09:03:53.321Z,96761.21
2019-04-30T09:05:04.557Z,96755.34
2019-04-30T09:06:16.880Z,96755.02
2019-04-30T09:07:24.135Z,96753.95
2019-04-30T09:08:31.379Z,96755.75
2019-04-30T09:09:38.989Z,96753.30
2019-04-30T09:10:49.061Z,96752.95
2019-04-30T09:11:56.357Z,96755.69
2019-04-30T09:13:03.641Z,96760.30
2019-04-30T09:14:11.952Z,96758.67
2019-04-30T09:15:19.222Z,96761.02
2019-04-30T09:16:26.481Z,96762.58
2019-04-30T09:17:35.371Z,96761.06
2019-04-30T09:18:43.542Z,96760.84
2019-04-30T09:19:50.781Z,96759.77
2019-04-30T09:21:05.739Z,96757.52
2019-04-30T09:22:13.079Z,96760.95
2019-04-30T09:23:15.927Z,96760.59
2019-04-30T09:24:23.163Z,96756.48
2019-04-30T09:25:30.389Z,96761.67
2019-04-30T09:26:39.187Z,96755.18
2019-04-30T09:27:48.668Z,96757.31
2019-04-30T09:28:55.458Z,96761.89
2019-04-30T09:30:02.669Z,96759.55
2019-04-30T09:31:11.773Z,96760.63
2019-04-30T09:32:19.453Z,96758.27
2019-04-30T09:33:26.747Z,96765.02
2019-04-30T09:34:33.959Z,96761.70
2019-04-30T09:35:41.155Z,96760.54
2019-04-30T09:36:49.102Z,96758.91
2019-04-30T09:37:59.696Z,96754.69
2019-04-30T09:39:08.944Z,96760.02
2019-04-30T09:40:20.565Z,96764.16
2019-04-30T09:41:25.386Z,96766.28
2019-04-30T09:42:32.629Z,96762.28
2019-04-30T09:43:40.551Z,96764.73
2019-04-30T09:44:49.454Z,96765.92
2019-04-30T09:45:56.661Z,96767.00
2019-04-30T09:47:03.872Z,96769.37
2019-04-30T09:48:11.179Z,96762.65
2019-04-30T09:49:19.472Z,96762.64
2019-04-30T09:50:29.005Z,96766.20
2019-04-30T09:51:36.171Z,96772.00
2019-04-30T09:52:43.899Z,96767.38
2019-04-30T09:53:59.115Z,96776.25
2019-04-30T09:55:00.843Z,96771.41
2019-04-30T09:56:09.553Z,96770.94
2019-04-30T09:57:19.145Z,96775.30
2019-04-30T09:58:26.003Z,96768.92
2019-04-30T09:59:33.291Z,96769.97
2019-04-30T10:00:40.672Z,96767.95
2019-04-30T10:01:50.804Z,96767.95
2019-04-30T10:02:59.918Z,96768.58
2019-04-30T10:04:07.883Z,96764.20
2019-04-30T10:05:18.855Z,96771.50
2019-04-30T10:06:37.104Z,96766.30
2019-04-30T10:07:35.100Z,96767.48
2019-04-30T10:08:48.381Z,96768.67
2019-04-30T10:09:51.299Z,96761.48
2019-04-30T10:11:10.406Z,96763.73
2019-04-30T10:12:19.377Z,96760.77
2019-04-30T10:13:26.564Z,96760.42
2019-04-30T10:14:33.819Z,96755.34
2019-04-30T10:16:12.011Z,96754.03
2019-04-30T10:17:34.389Z,96752.38
2019-04-30T10:18:41.709Z,96749.88
2019-04-30T10:19:49.279Z,96752.37
2019-04-30T10:20:58.907Z,96759.56
2019-04-30T10:22:08.847Z,96754.95
2019-04-30T10:23:15.955Z,96755.44
2019-04-30T10:24:23.270Z,96754.58
2019-04-30T10:25:30.542Z,96750.75
2019-04-30T10:26:37.800Z,96749.41
2019-04-30T10:27:45.383Z,96749.84
2019-04-30T10:28:55.414Z,96744.27
2019-04-30T10:30:02.869Z,96747.77
2019-04-30T10:31:10.289Z,96756.11
2019-04-30T10:32:18.713Z,96746.98
2019-04-30T10:33:26.078Z,96735.56
2019-04-30T10:34:33.329Z,96742.44
2019-04-30T10:35:40.630Z,96745.22
2019-04-30T10:36:49.518Z,96740.66
2019-04-30T10:37:56.972Z,96738.13
2019-04-30T10:39:06.318Z,96742.20
2019-04-30T10:40:14.425Z,96735.85
2019-04-30T10:41:21.732Z,96737.48
2019-04-30T10:42:29.153Z,96732.67
2019-04-30T10:43:36.342Z,96733.95
2019-04-30T10:44:43.540Z,96739.26
2019-04-30T10:45:50.861Z,96732.61
2019-04-30T10:46:59.360Z,96732.80
2019-04-30T10:48:07.047Z,96731.36
2019-04-30T10:49:14.483Z,96728.75
2019-04-30T10:50:22.974Z,96726.84
2019-04-30T10:51:30.259Z,96728.98
2019-04-30T10:52:39.330Z,96726.72
2019-04-30T10:53:46.497Z,96730.02
2019-04-30T10:54:53.734Z,96725.50
2019-04-30T10:56:01.069Z,96732.22
2019-04-30T10:57:08.759Z,96729.00
2019-04-30T10:58:16.101Z,96727.91
2019-04-30T10:59:23.328Z,96730.27
2019-04-30T11:00:42.290Z,96725.77
2019-04-30T11:01:49.600Z,96725.13
2019-04-30T11:02:56.881Z,96723.83
2019-04-30T11:04:04.502Z,96729.62
2019-04-30T11:05:12.269Z,96726.27
2019-04-30T11:06:19.524Z,96723.87
2019-04-30T11:07:28.821Z,96725.31
2019-04-30T11:08:36.302Z,96723.66
2019-04-30T11:09:43.544Z,96728.88
2019-04-30T11:10:50.799Z,96730.66
2019-04-30T11:11:59.390Z,96731.48
2019-04-30T11:13:06.933Z,96729.14
2019-04-30T11:14:14.187Z,96730.70
2019-04-30T11:15:21.452Z,96732.75
2019-04-30T11:16:29.753Z,96735.48
2019-04-30T11:17:39.170Z,96739.05
2019-04-30T11:18:46.279Z,96730.30
2019-04-30T11:19:53.636Z,96728.65
2019-04-30T11:21:01.169Z,96728.65
2019-04-30T11:22:08.790Z,96727.70
2019-04-30T11:23:16.376Z,96729.34
2019-04-30T11:24:35.976Z,96727.91
2019-04-30T11:25:33.402Z,96730.39
2019-04-30T11:26:41.745Z,96720.30
2019-04-30T11:27:50.666Z,96727.66
2019-04-30T11:28:58.423Z,96722.30
2019-04-30T11:30:18.494Z,96722.20
2019-04-30T11:31:38.148Z,96726.31
2019-04-30T11:32:45.711Z,96723.70
2019-04-30T11:33:53.445Z,96716.27
2019-04-30T11:35:00.715Z,96717.56
2019-04-30T11:36:09.666Z,96717.47
2019-04-30T11:37:16.967Z,96720.27
2019-04-30T11:38:24.182Z,96715.74
2019-04-30T11:39:31.540Z,96714.66
2019-04-30T11:40:39.947Z,96714.88
2019-04-30T11:41:47.677Z,96719.00
2019-04-30T11:42:54.927Z,96715.09
2019-04-30T11:44:02.169Z,96714.27
2019-04-30T11:45:11.571Z,96715.22
2019-04-30T11:47:26.608Z,96715.48
2019-04-30T11:48:33.865Z,96714.44
2019-04-30T11:49:41.062Z,96713.89
2019-04-30T11:50:49.666Z,96720.89
2019-04-30T11:51:56.909Z,96714.84
2019-04-30T11:53:19.647Z,96714.50
2019-04-30T11:54:13.192Z,96715.45
2019-04-30T11:55:20.402Z,96713.32
2019-04-30T11:56:27.612Z,96714.63
2019-04-30T11:57:36.533Z,96713.55
2019-04-30T11:58:43.764Z,96717.03
2019-04-30T11:59:51.248Z,96707.52
2019-04-30T12:00:59.272Z,96711.77
2019-04-30T12:02:13.748Z,96703.86
2019-04-30T12:03:21.004Z,96705.47
2019-04-30T12:04:29.827Z,96701.00
2019-04-30T12:05:38.906Z,96705.56
2019-04-30T12:06:46.314Z,96704.26
2019-04-30T12:08:19.511Z,96702.73
2019-04-30T12:09:52.027Z,96707.83
2019-04-30T12:11:10.626Z,96707.64
2019-04-30T12:12:18.942Z,96699.58
2019-04-30T12:13:27.423Z,96699.73
2019-04-30T12:14:34.660Z,96702.25
2019-04-30T12:15:41.930Z,96701.39
2019-04-30T12:16:50.636Z,96698.34
2019-04-30T12:17:58.054Z,96702.68
2019-04-30T12:19:05.689Z,96698.34
2019-04-30T12:20:13.222Z,96697.29
2019-04-30T12:21:20.459Z,96698.53
2019-04-30T12:22:29.487Z,96704.97
2019-04-30T12:23:37.885Z,96706.20
2019-04-30T12:24:45.109Z,96703.11
2019-04-30T12:25:52.335Z,96704.76
2019-04-30T12:26:59.575Z,96701.31
2019-04-30T12:28:06.804Z,96699.52
2019-04-30T12:29:14.047Z,96698.36
2019-04-30T12:30:21.767Z,96693.95
2019-04-30T12:31:29.751Z,96692.64
2019-04-30T12:32:39.170Z,96700.35
2019-04-30T12:33:46.158Z,96693.16
2019-04-30T12:34:53.383Z,96693.50
2019-04-30T12:36:00.612Z,96692.41
2019-04-30T12:37:10.589Z,96694.26
2019-04-30T12:38:18.991Z,96691.98
2019-04-30T12:39:26.066Z,96693.16
2019-04-30T12:40:33.282Z,96686.62
2019-04-30T12:41:40.742Z,96696.11
2019-04-30T12:42:48.728Z,96692.67
2019-04-30T12:43:56.140Z,96694.33
2019-04-30T12:45:03.652Z,96686.13
2019-04-30T12:46:10.878Z,96692.19
2019-04-30T12:47:21.477Z,96691.05
2019-04-30T12:48:33.700Z,96687.47
2019-04-30T12:50:05.696Z,96686.16
2019-04-30T12:51:28.239Z,96687.33
2019-04-30T12:52:43.929Z,96686.13
2019-04-30T12:54:00.816Z,96690.95
2019-04-30T12:55:29.397Z,96686.48
2019-04-30T12:57:13.990Z,96693.64
2019-04-30T12:58:21.199Z,96690.66
2019-04-30T12:59:28.439Z,96694.27
2019-04-30T13:00:35.665Z,96693.44
2019-04-30T13:01:42.995Z,96691.78
2019-04-30T13:02:50.192Z,96683.94
2019-04-30T13:03:59.377Z,96685.25
2019-04-30T13:05:09.698Z,96683.32
2019-04-30T13:06:17.492Z,96681.05
2019-04-30T13:07:25.654Z,96685.63
2019-04-30T13:08:33.950Z,96685.36
2019-04-30T13:09:42.238Z,96679.84
2019-04-30T13:10:50.524Z,96679.70
2019-04-30T13:12:00.608Z,96682.88
2019-04-30T13:13:07.612Z,96676.98
2019-04-30T13:14:15.578Z,96678.50
2019-04-30T13:15:23.107Z,96671.34
2019-04-30T13:16:30.361Z,96676.29
2019-04-30T13:17:37.600Z,96679.77
2019-04-30T13:18:44.815Z,96678.66
2019-04-30T13:19:52.037Z,96672.67
2019-04-30T13:21:01.321Z,96676.94
2019-04-30T13:22:09.071Z,96674.31
2019-04-30T13:23:18.628Z,96675.77
2019-04-30T13:24:25.940Z,96679.00
2019-04-30T13:25:35.472Z,96675.36
2019-04-30T13:26:42.430Z,96667.48
2019-04-30T13:27:53.634Z,96673.47
2019-04-30T13:29:20.780Z,96668.18
2019-04-30T13:30:30.016Z,96668.91
2019-04-30T13:31:37.407Z,96670.94
2019-04-30T13:32:51.600Z,96667.43
2019-04-30T13:34:10.162Z,96669.15
2019-04-30T13:35:19.086Z,96666.02
2019-04-30T13:36:26.400Z,96664.02